Time;durP1;ratioP1;P1;durP2;ratioP2;P2;SDS_P1;SDS_P2;PMS_P1;PMS_P2;Temp;Humidity;BMP_temperature;BMP_pressure;BME280_temperature;BME280_humidity;BME280_pressure;Samples;Min_cycle;Max_cycle;Signal;HPM_P1;HPM_P2
2021/11/22 00:00:08;;;;;;;2.38;2.05;;;5.10;99.90;;;;;;4970909;28;20045;-77
2021/11/22 00:02:50;;;;;;;2.70;2.03;;;5.10;99.90;;;;;;4958066;28;20070;-77
2021/11/22 00:05:48;;;;;;;2.15;1.60;;;5.00;99.90;;;;;;4975594;28;20141;-77
2021/11/22 00:08:24;;;;;;;3.10;2.10;;;5.00;99.90;;;;;;4970971;28;20034;-78
2021/11/22 00:11:29;;;;;;;2.45;1.88;;;5.00;99.90;;;;;;4972246;28;20039;-77
2021/11/22 00:15:09;;;;;;;2.30;1.95;;;5.10;99.90;;;;;;4971937;28;20050;-77
2021/11/22 00:18:02;;;;;;;2.00;1.60;;;5.10;99.90;;;;;;4969281;28;20027;-77
2021/11/22 00:20:55;;;;;;;3.08;1.95;;;5.10;99.90;;;;;;4970187;28;20122;-78
2021/11/22 00:24:04;;;;;;;2.22;1.52;;;5.10;99.90;;;;;;4974552;28;20071;-77
2021/11/22 00:27:14;;;;;;;3.17;2.00;;;5.10;99.90;;;;;;4970707;28;20037;-78
2021/11/22 00:29:47;;;;;;;4.68;2.28;;;5.00;99.90;;;;;;4985268;28;20031;-77
2021/11/22 00:32:39;;;;;;;3.08;2.08;;;5.10;99.90;;;;;;4969448;28;20035;-78
2021/11/22 00:36:05;;;;;;;3.65;2.25;;;5.10;99.90;;;;;;4964283;28;20507;-77
2021/11/22 00:39:01;;;;;;;2.78;1.83;;;5.10;99.90;;;;;;4986976;28;20065;-79
2021/11/22 00:42:46;;;;;;;4.25;2.20;;;5.10;99.90;;;;;;4970729;28;20039;-78
2021/11/22 00:45:56;;;;;;;3.25;2.50;;;5.10;99.90;;;;;;4963915;28;20580;-78
2021/11/22 00:48:36;;;;;;;3.72;2.40;;;5.10;99.90;;;;;;4986101;28;20169;-77
2021/11/22 00:54:25;;;;;;;3.10;2.15;;;5.10;99.90;;;;;;4970174;28;20504;-77
2021/11/22 00:57:35;;;;;;;3.97;2.80;;;5.10;99.90;;;;;;4979857;28;20034;-79
2021/11/22 01:00:41;;;;;;;3.20;2.40;;;5.10;99.90;;;;;;4974701;28;20559;-77
2021/11/22 01:03:41;;;;;;;2.88;1.88;;;5.10;99.90;;;;;;4991648;28;20527;-77
2021/11/22 01:06:15;;;;;;;3.85;2.38;;;5.10;99.90;;;;;;4988101;28;20182;-78
2021/11/22 01:09:11;;;;;;;2.88;1.90;;;5.10;99.90;;;;;;4973037;28;20026;-77
2021/11/22 01:11:48;;;;;;;3.65;2.22;;;5.10;99.90;;;;;;4990369;28;20481;-77
2021/11/22 01:14:57;;;;;;;3.22;2.33;;;5.10;99.90;;;;;;4990686;28;20580;-79
2021/11/22 01:17:32;;;;;;;2.92;2.03;;;5.10;99.90;;;;;;4972776;28;20038;-77
2021/11/22 01:20:15;;;;;;;4.22;2.50;;;5.10;99.90;;;;;;4990617;28;20034;-77
2021/11/22 01:23:27;;;;;;;4.10;2.30;;;5.10;99.90;;;;;;4974827;28;20422;-77
2021/11/22 01:26:23;;;;;;;3.38;2.40;;;5.10;99.90;;;;;;4972384;28;20515;-77
2021/11/22 01:29:18;;;;;;;3.75;2.50;;;5.10;99.90;;;;;;4974514;28;20133;-80
2021/11/22 01:32:26;;;;;;;3.35;2.42;;;5.10;99.90;;;;;;4970926;28;20031;-79
2021/11/22 01:38:38;;;;;;;4.18;2.72;;;5.10;99.90;;;;;;4971352;28;20035;-78
2021/11/22 01:41:54;;;;;;;4.05;2.05;;;5.10;99.90;;;;;;4978165;28;20042;-78
2021/11/22 01:44:45;;;;;;;3.47;2.40;;;5.10;99.90;;;;;;4972220;28;20035;-79
2021/11/22 01:47:21;;;;;;;3.40;2.20;;;5.20;99.90;;;;;;4970372;28;20041;-79
2021/11/22 01:51:07;;;;;;;2.70;2.17;;;5.10;99.90;;;;;;4972552;28;20030;-77
2021/11/22 01:54:32;;;;;;;3.92;2.55;;;5.20;99.90;;;;;;4968426;28;20035;-78
2021/11/22 01:57:21;;;;;;;1.92;1.67;;;5.10;99.90;;;;;;4970293;28;20038;-78
2021/11/22 01:59:55;;;;;;;3.45;2.30;;;5.10;99.90;;;;;;4970551;28;20038;-77
2021/11/22 02:03:15;;;;;;;3.78;2.47;;;5.10;99.90;;;;;;4965753;28;20113;-77
2021/11/22 02:06:24;;;;;;;3.15;2.20;;;5.10;99.90;;;;;;4971562;28;20042;-77
2021/11/22 02:08:57;;;;;;;3.00;2.20;;;5.10;99.90;;;;;;4971359;28;20045;-79
2021/11/22 02:11:38;;;;;;;3.33;2.20;;;5.10;99.90;;;;;;4972873;28;20031;-77
2021/11/22 02:14:29;;;;;;;3.20;2.10;;;5.10;99.90;;;;;;4982937;28;20054;-78
2021/11/22 02:17:33;;;;;;;3.50;2.30;;;5.10;99.90;;;;;;4972537;28;20108;-79
2021/11/22 02:20:24;;;;;;;3.78;2.00;;;5.10;99.90;;;;;;4994610;28;20520;-78
2021/11/22 02:22:58;;;;;;;3.17;2.17;;;5.10;99.90;;;;;;4973288;28;20038;-79
2021/11/22 02:25:57;;;;;;;2.70;1.90;;;5.10;99.90;;;;;;4972011;28;20062;-77
2021/11/22 02:29:15;;;;;;;3.08;2.03;;;5.10;99.90;;;;;;4963621;28;20035;-79
2021/11/22 02:32:46;;;;;;;3.50;2.25;;;5.10;99.90;;;;;;5005712;28;20087;-79
2021/11/22 02:35:49;;;;;;;2.53;1.77;;;5.10;99.90;;;;;;4967645;28;20114;-78
2021/11/22 02:38:58;;;;;;;3.45;2.40;;;5.10;99.90;;;;;;4970262;28;20511;-79
2021/11/22 02:41:34;;;;;;;2.65;1.88;;;5.10;99.90;;;;;;4969433;28;20497;-79
2021/11/22 02:44:12;;;;;;;4.32;1.92;;;5.10;99.90;;;;;;4983698;28;20069;-78
2021/11/22 02:47:10;;;;;;;2.40;1.90;;;5.10;99.90;;;;;;4979654;28;20497;-78
2021/11/22 02:50:21;;;;;;;4.05;2.35;;;5.10;99.90;;;;;;4972550;28;20039;-79
2021/11/22 02:53:19;;;;;;;3.33;2.03;;;5.10;99.90;;;;;;4953617;28;20041;-78
2021/11/22 02:56:26;;;;;;;2.90;2.22;;;5.10;99.90;;;;;;4967081;28;20026;-79
2021/11/22 02:59:17;;;;;;;2.72;2.00;;;5.10;99.90;;;;;;4969626;28;20532;-78
2021/11/22 03:02:20;;;;;;;3.05;2.10;;;5.10;99.90;;;;;;4966685;28;20066;-79
2021/11/22 03:04:54;;;;;;;3.83;2.20;;;5.10;99.90;;;;;;4971932;28;20058;-79
2021/11/22 03:08:14;;;;;;;2.65;1.95;;;5.10;99.90;;;;;;4968681;28;20085;-77
2021/11/22 03:11:05;;;;;;;3.92;2.28;;;5.10;99.90;;;;;;4971154;28;20093;-80
2021/11/22 03:13:45;;;;;;;3.03;1.83;;;5.10;99.90;;;;;;4964209;28;20035;-78
2021/11/22 03:16:51;;;;;;;2.28;1.88;;;5.10;99.90;;;;;;4968518;28;20516;-79
2021/11/22 03:22:17;;;;;;;3.83;2.15;;;5.10;99.90;;;;;;4983606;28;20046;-79
2021/11/22 03:24:54;;;;;;;2.42;2.03;;;5.10;99.90;;;;;;4973311;28;20049;-78
2021/11/22 03:27:50;;;;;;;2.63;2.03;;;5.10;99.90;;;;;;4956354;28;20039;-79
2021/11/22 03:30:29;;;;;;;2.58;2.08;;;5.10;99.90;;;;;;4972015;28;20054;-78
2021/11/22 03:33:02;;;;;;;2.63;1.80;;;5.10;99.90;;;;;;4969264;28;20370;-79
2021/11/22 03:35:58;;;;;;;3.67;2.35;;;5.10;99.90;;;;;;4969610;28;20042;-78
2021/11/22 03:38:32;;;;;;;2.55;1.92;;;5.10;99.90;;;;;;4968304;28;20507;-79
2021/11/22 03:41:38;;;;;;;2.42;1.92;;;5.10;99.90;;;;;;4979611;28;20102;-78
2021/11/22 03:44:33;;;;;;;2.72;1.70;;;5.10;99.90;;;;;;4973355;28;20608;-78
2021/11/22 03:47:14;;;;;;;2.22;2.03;;;5.10;99.90;;;;;;4984818;28;20038;-77
2021/11/22 03:50:01;;;;;;;5.20;1.98;;;5.10;99.90;;;;;;4985056;28;20452;-79
2021/11/22 03:52:49;;;;;;;3.17;2.17;;;5.10;99.90;;;;;;4967132;28;20027;-79
2021/11/22 03:56:02;;;;;;;2.47;2.08;;;5.10;99.90;;;;;;4976291;28;20266;-79
2021/11/22 03:59:03;;;;;;;2.22;1.80;;;5.10;99.90;;;;;;4974774;28;20043;-79
2021/11/22 04:01:58;;;;;;;2.67;2.22;;;5.10;99.90;;;;;;4972002;28;20045;-79
2021/11/22 04:04:30;;;;;;;2.58;2.22;;;5.10;99.90;;;;;;4964150;28;20104;-77
2021/11/22 04:07:50;;;;;;;2.95;2.10;;;5.10;99.90;;;;;;4966037;28;20142;-79
2021/11/22 04:11:08;;;;;;;2.35;2.10;;;5.10;99.90;;;;;;4966284;28;20037;-79
2021/11/22 04:14:08;;;;;;;2.78;2.13;;;5.10;99.90;;;;;;4970133;28;20074;-77
2021/11/22 04:16:48;;;;;;;2.70;2.03;;;5.10;99.90;;;;;;4968993;28;20027;-78
2021/11/22 04:19:39;;;;;;;2.55;2.25;;;5.10;99.90;;;;;;4969645;28;20027;-78
2021/11/22 04:22:18;;;;;;;3.90;2.30;;;5.10;99.90;;;;;;4940368;28;20046;-79
2021/11/22 04:25:32;;;;;;;2.97;1.80;;;5.10;99.90;;;;;;4973590;28;20502;-79
2021/11/22 04:28:37;;;;;;;3.28;2.20;;;5.10;99.90;;;;;;4970743;28;20047;-79
2021/11/22 04:31:40;;;;;;;2.20;1.90;;;5.10;99.90;;;;;;4964493;28;20117;-78
2021/11/22 04:34:14;;;;;;;2.65;1.98;;;5.10;99.90;;;;;;4972781;28;20085;-79
2021/11/22 04:37:07;;;;;;;2.25;2.00;;;5.10;99.90;;;;;;4972175;28;20031;-79
2021/11/22 04:39:39;;;;;;;2.63;2.08;;;5.00;99.90;;;;;;4974649;28;20433;-80
2021/11/22 04:42:18;;;;;;;2.72;2.15;;;5.00;99.90;;;;;;4974182;28;20062;-78
2021/11/22 04:44:52;;;;;;;2.63;1.90;;;5.00;99.90;;;;;;4974099;28;20122;-79
2021/11/22 04:47:49;;;;;;;2.60;1.95;;;5.00;99.90;;;;;;4973047;28;20043;-78
2021/11/22 04:50:38;;;;;;;2.42;2.22;;;5.10;99.90;;;;;;4975060;28;20039;-79
2021/11/22 04:53:55;;;;;;;2.22;1.85;;;5.00;99.90;;;;;;4969327;28;20031;-79
2021/11/22 04:56:58;;;;;;;2.75;2.08;;;5.00;99.90;;;;;;4983054;28;20481;-78
2021/11/22 04:59:43;;;;;;;2.53;2.08;;;5.10;99.90;;;;;;4971013;28;20110;-76
2021/11/22 05:02:33;;;;;;;2.25;1.90;;;5.00;99.90;;;;;;4980172;28;20064;-78
2021/11/22 05:05:04;;;;;;;2.72;2.05;;;5.00;99.90;;;;;;4971273;28;20640;-77
2021/11/22 05:11:22;;;;;;;3.47;1.90;;;5.00;99.90;;;;;;4970326;28;20035;-78
2021/11/22 05:14:10;;;;;;;;;;;5.00;99.90;;;;;;4973469;28;20026;-79
2021/11/22 05:16:50;;;;;;;3.03;1.70;;;5.00;99.90;;;;;;4986647;28;19916;-76
2021/11/22 05:19:45;;;;;;;3.35;1.90;;;5.00;99.90;;;;;;4972105;28;20066;-78
2021/11/22 05:22:46;;;;;;;2.60;1.67;;;5.00;99.90;;;;;;4973707;28;20101;-77
2021/11/22 05:25:59;;;;;;;2.25;1.88;;;4.90;99.90;;;;;;4973746;28;20034;-78
2021/11/22 05:29:17;;;;;;;1.73;1.52;;;5.00;99.90;;;;;;4969183;28;20062;-79
2021/11/22 05:31:58;;;;;;;1.85;1.58;;;4.90;99.90;;;;;;4978226;28;20486;-78
2021/11/22 05:35:06;;;;;;;2.75;1.70;;;4.90;99.90;;;;;;4965384;28;20046;-78
2021/11/22 05:37:44;;;;;;;2.63;1.63;;;4.90;99.90;;;;;;4978837;28;20526;-77
2021/11/22 05:40:32;;;;;;;2.83;1.80;;;4.90;99.90;;;;;;5002707;28;20510;-78
2021/11/22 05:43:07;;;;;;;1.73;1.52;;;4.90;99.90;;;;;;4971462;28;20516;-78
2021/11/22 05:45:59;;;;;;;2.33;1.40;;;4.90;99.90;;;;;;4972232;28;20038;-76
2021/11/22 05:48:59;;;;;;;4.53;1.65;;;4.90;99.90;;;;;;4984236;28;20038;-78
2021/11/22 05:51:45;;;;;;;3.33;1.80;;;4.90;99.90;;;;;;4970960;28;20031;-78
2021/11/22 05:54:25;;;;;;;2.10;1.55;;;4.90;99.90;;;;;;4971407;28;20367;-78
2021/11/22 05:57:24;;;;;;;2.17;1.40;;;4.90;99.90;;;;;;4969272;28;20045;-78
2021/11/22 06:00:11;;;;;;;1.40;1.30;;;4.80;99.90;;;;;;4970832;28;20023;-76
2021/11/22 06:02:45;;;;;;;2.75;1.30;;;4.90;99.90;;;;;;4970404;28;20282;-78
2021/11/22 06:05:59;;;;;;;1.77;1.15;;;4.80;99.90;;;;;;4972179;28;20045;-77
2021/11/22 06:09:39;;;;;;;1.10;1.00;;;4.80;99.90;;;;;;4972838;28;20240;-78
2021/11/22 06:12:19;;;;;;;1.75;1.17;;;4.80;99.90;;;;;;4957051;28;20118;-79
2021/11/22 06:15:01;;;;;;;1.40;1.20;;;4.80;99.90;;;;;;4971065;28;20057;-78
2021/11/22 06:17:36;;;;;;;;;;;4.70;99.90;;;;;;4984035;28;20051;-78
2021/11/22 06:20:20;;;;;;;1.08;0.93;;;4.80;99.90;;;;;;4971095;28;19916;-77
2021/11/22 06:23:15;;;;;;;1.30;1.20;;;4.80;99.90;;;;;;4972254;28;20087;-76
2021/11/22 06:26:18;;;;;;;2.45;1.30;;;4.80;99.90;;;;;;4969492;28;20114;-75
2021/11/22 06:29:12;;;;;;;1.40;1.30;;;4.80;99.90;;;;;;4969265;28;20058;-77
2021/11/22 06:31:59;;;;;;;2.13;1.40;;;4.80;99.90;;;;;;4969273;28;20027;-75
2021/11/22 06:35:23;;;;;;;4.28;1.50;;;4.70;99.90;;;;;;4973721;28;20046;-78
2021/11/22 06:38:12;;;;;;;2.30;1.30;;;4.70;99.90;;;;;;4969964;28;20035;-79
2021/11/22 06:41:16;;;;;;;1.50;1.40;;;4.70;99.90;;;;;;4972106;28;20439;-78
2021/11/22 06:44:30;;;;;;;2.25;1.45;;;4.70;99.90;;;;;;4985564;28;20074;-77
2021/11/22 06:47:19;;;;;;;3.88;1.77;;;4.70;99.90;;;;;;4970640;28;20034;-77
2021/11/22 06:50:18;;;;;;;2.80;1.45;;;4.70;99.90;;;;;;4970465;28;20137;-78
2021/11/22 06:53:00;;;;;;;2.05;1.85;;;4.80;99.90;;;;;;4968239;28;20119;-77
2021/11/22 06:55:32;;;;;;;2.10;1.75;;;4.80;99.90;;;;;;4984908;28;20042;-78
2021/11/22 06:58:36;;;;;;;4.22;2.00;;;4.70;99.90;;;;;;4984135;28;20065;-77
2021/11/22 07:01:29;;;;;;;2.95;1.80;;;4.70;99.90;;;;;;4984882;28;20027;-78
2021/11/22 07:04:33;;;;;;;2.75;1.50;;;4.70;99.90;;;;;;4969978;28;20086;-78
2021/11/22 07:09:42;;;;;;;5.40;1.90;;;4.70;99.90;;;;;;2181260;23;20444;-78
2021/11/22 07:12:08;;;;;;;1.60;1.50;;;4.70;99.90;;;;;;4973339;28;20042;-79
2021/11/22 07:14:37;;;;;;;1.80;1.70;;;4.70;99.90;;;;;;4975119;28;20045;-80
2021/11/22 07:17:03;;;;;;;2.28;1.40;;;4.70;99.90;;;;;;4954153;28;20370;-80
2021/11/22 07:19:30;;;;;;;2.67;1.50;;;4.70;99.90;;;;;;4973125;28;20023;-80
2021/11/22 07:21:56;;;;;;;1.73;1.63;;;4.80;99.90;;;;;;4978529;28;20026;-80
2021/11/22 07:24:21;;;;;;;1.70;1.60;;;4.80;99.90;;;;;;4942688;23;20043;-88
2021/11/22 07:26:47;;;;;;;1.60;1.50;;;4.80;99.90;;;;;;4948996;28;20099;-87
2021/11/22 07:29:15;;;;;;;2.30;1.60;;;4.80;99.90;;;;;;4914434;29;20495;-87
2021/11/22 07:31:42;;;;;;;1.48;1.35;;;4.80;99.90;;;;;;4912393;29;20123;-89
2021/11/22 07:34:08;;;;;;;2.30;1.60;;;4.80;99.90;;;;;;4923197;29;20036;-86
2021/11/22 07:36:34;;;;;;;2.42;1.60;;;4.80;99.90;;;;;;4945463;29;20399;-88
2021/11/22 07:39:00;;;;;;;1.95;1.60;;;4.90;99.90;;;;;;4930194;29;20039;-87
2021/11/22 07:41:25;;;;;;;2.78;1.92;;;4.90;99.90;;;;;;4914112;29;20040;-87
2021/11/22 07:43:51;;;;;;;2.85;1.77;;;4.90;99.90;;;;;;4945005;29;20032;-85
2021/11/22 07:46:17;;;;;;;2.10;1.90;;;4.90;99.90;;;;;;4915957;29;20700;-86
2021/11/22 07:48:43;;;;;;;2.17;1.73;;;4.90;99.90;;;;;;4928810;28;20039;-87
2021/11/22 07:51:09;;;;;;;1.73;1.33;;;4.90;99.90;;;;;;4915668;29;20123;-86
2021/11/22 07:53:36;;;;;;;2.08;1.88;;;4.90;99.90;;;;;;4917369;28;20036;-88
2021/11/22 07:56:04;;;;;;;2.20;1.30;;;4.90;99.90;;;;;;4933509;28;20036;-88
2021/11/22 07:58:34;;;;;;;1.67;1.58;;;5.00;99.90;;;;;;4931507;29;20474;-85
2021/11/22 08:01:00;;;;;;;3.53;1.50;;;5.00;99.90;;;;;;4931418;29;20035;-86
2021/11/22 08:03:27;;;;;;;2.13;1.55;;;5.00;99.90;;;;;;4918445;29;20084;-86
2021/11/22 08:05:56;;;;;;;1.45;1.35;;;5.00;99.90;;;;;;4933409;28;20510;-86
2021/11/22 08:08:24;;;;;;;1.52;1.42;;;5.00;99.90;;;;;;4951845;29;20028;-86
2021/11/22 08:11:04;;;;;;;1.90;1.30;;;5.00;99.90;;;;;;4938995;29;20035;-85
2021/11/22 08:13:31;;;;;;;2.00;1.27;;;5.00;99.90;;;;;;4933799;28;20043;-85
2021/11/22 08:16:01;;;;;;;3.08;1.20;;;5.00;99.90;;;;;;4943991;28;20035;-84
2021/11/22 08:18:27;;;;;;;1.67;1.17;;;5.10;99.90;;;;;;4920559;29;20024;-85
2021/11/22 08:20:54;;;;;;;1.83;1.50;;;5.00;99.90;;;;;;4950167;28;20087;-84
2021/11/22 08:23:19;;;;;;;2.05;1.30;;;5.10;99.90;;;;;;4933372;29;20046;-84
2021/11/22 08:25:45;;;;;;;1.63;1.52;;;5.00;99.90;;;;;;4928518;29;20438;-85
2021/11/22 08:28:11;;;;;;;1.45;1.35;;;5.10;99.90;;;;;;4950315;28;20474;-85
2021/11/22 08:30:38;;;;;;;1.98;1.60;;;5.10;99.90;;;;;;4925634;29;20091;-85
2021/11/22 08:33:04;;;;;;;1.98;1.48;;;5.10;99.90;;;;;;4934646;29;20037;-84
2021/11/22 08:35:33;;;;;;;1.95;1.75;;;5.10;99.90;;;;;;4947317;28;20028;-86
2021/11/22 08:38:00;;;;;;;2.97;1.60;;;5.10;99.90;;;;;;4933839;29;20663;-86
2021/11/22 08:40:26;;;;;;;2.55;1.35;;;5.10;99.90;;;;;;4929827;29;20036;-84
2021/11/22 08:42:54;;;;;;;2.60;1.85;;;5.10;99.90;;;;;;4934376;29;20024;-86
2021/11/22 08:45:22;;;;;;;1.95;1.75;;;5.10;99.90;;;;;;4951972;28;20052;-86
2021/11/22 08:47:50;;;;;;;1.50;1.40;;;5.10;99.90;;;;;;4935456;29;20036;-87
2021/11/22 08:50:17;;;;;;;2.05;1.90;;;5.10;99.90;;;;;;4947951;28;20063;-86
2021/11/22 08:52:43;;;;;;;1.77;1.67;;;5.10;99.90;;;;;;4928589;29;20035;-84
2021/11/22 08:55:11;;;;;;;2.08;1.75;;;5.20;99.90;;;;;;4924131;28;20256;-85
2021/11/22 08:57:38;;;;;;;1.63;1.52;;;5.20;99.90;;;;;;4935123;29;20414;-86
2021/11/22 09:00:10;;;;;;;2.38;2.05;;;5.20;99.90;;;;;;4948453;28;20116;-86
2021/11/22 09:02:36;;;;;;;2.60;1.80;;;5.20;99.90;;;;;;4932371;29;20039;-85
2021/11/22 09:05:03;;;;;;;2.67;1.90;;;5.20;99.90;;;;;;4916873;29;20059;-84
2021/11/22 09:07:29;;;;;;;2.20;1.58;;;5.20;99.90;;;;;;4948289;28;20042;-86
2021/11/22 09:09:55;;;;;;;2.25;1.50;;;5.20;99.90;;;;;;4935128;29;20028;-83
2021/11/22 09:12:21;;;;;;;2.17;1.80;;;5.20;99.90;;;;;;4939997;29;20419;-84
2021/11/22 09:14:48;;;;;;;2.22;1.80;;;5.20;99.90;;;;;;4916183;29;20118;-85
2021/11/22 09:17:14;;;;;;;1.70;1.42;;;5.20;99.90;;;;;;4933367;29;20479;-84
2021/11/22 09:19:40;;;;;;;1.70;1.60;;;5.30;99.90;;;;;;4933225;29;20119;-84
2021/11/22 09:22:10;;;;;;;1.60;1.27;;;5.20;99.90;;;;;;4933265;29;20050;-85
2021/11/22 09:24:36;;;;;;;2.35;1.50;;;5.30;99.90;;;;;;4933884;29;20059;-86
2021/11/22 09:27:03;;;;;;;2.35;1.52;;;5.30;99.90;;;;;;4951693;28;20028;-84
2021/11/22 09:29:29;;;;;;;1.30;1.13;;;5.30;99.90;;;;;;4936904;29;20040;-86
2021/11/22 09:31:55;;;;;;;1.20;1.10;;;5.30;99.90;;;;;;4931772;29;20032;-84
2021/11/22 09:34:20;;;;;;;1.33;1.23;;;5.30;99.90;;;;;;4940628;28;20020;-84
2021/11/22 09:36:47;;;;;;;1.42;1.33;;;5.20;99.90;;;;;;4931877;29;20749;-85
2021/11/22 09:39:15;;;;;;;2.03;1.60;;;5.20;99.90;;;;;;4930937;28;20036;-82
2021/11/22 09:41:41;;;;;;;1.30;1.20;;;5.20;99.90;;;;;;4947688;28;20050;-84
2021/11/22 09:44:08;;;;;;;1.50;1.35;;;5.20;99.90;;;;;;4918914;29;20040;-85
2021/11/22 09:46:33;;;;;;;1.85;1.60;;;5.30;99.90;;;;;;4927100;28;20043;-83
2021/11/22 09:48:59;;;;;;;2.58;1.65;;;5.30;99.90;;;;;;4927415;28;20035;-85
2021/11/22 09:51:25;;;;;;;1.65;1.40;;;5.30;99.90;;;;;;4919076;29;20040;-86
2021/11/22 09:53:51;;;;;;;2.58;1.58;;;5.30;99.90;;;;;;4945130;28;20039;-85
2021/11/22 09:56:17;;;;;;;1.77;1.65;;;5.30;99.90;;;;;;4949753;28;20038;-88
2021/11/22 09:58:43;;;;;;;1.92;1.73;;;5.30;99.90;;;;;;4943772;29;20098;-85
2021/11/22 10:01:14;;;;;;;2.42;1.50;;;5.30;99.90;;;;;;4951456;28;20863;-86
2021/11/22 10:03:41;;;;;;;1.80;1.40;;;5.30;99.90;;;;;;4928400;29;20036;-86
2021/11/22 10:06:07;;;;;;;1.42;1.15;;;5.30;99.90;;;;;;4941768;28;20033;-86
2021/11/22 10:08:41;;;;;;;1.73;1.30;;;5.40;99.90;;;;;;4932934;28;20047;-87
2021/11/22 10:11:09;;;;;;;3.90;1.30;;;5.50;99.90;;;;;;4946064;28;20740;-85
2021/11/22 10:13:38;;;;;;;1.95;1.70;;;5.50;99.90;;;;;;4947871;28;20031;-86
2021/11/22 10:16:16;;;;;;;2.10;1.50;;;5.50;99.90;;;;;;4939078;28;20063;-85
2021/11/22 10:18:45;;;;;;;1.95;1.33;;;5.60;99.90;;;;;;4949481;28;20035;-86
2021/11/22 10:21:13;;;;;;;2.28;1.70;;;5.50;99.90;;;;;;4915481;29;20047;-85
2021/11/22 10:23:42;;;;;;;1.95;1.70;;;5.50;99.90;;;;;;4941912;28;20044;-84
2021/11/22 10:26:11;;;;;;;3.50;1.63;;;5.50;99.90;;;;;;4930048;28;20094;-86
2021/11/22 10:28:55;;;;;;;2.30;1.50;;;5.50;99.90;;;;;;4936227;29;20040;-84
2021/11/22 10:31:24;;;;;;;1.92;1.50;;;5.50;99.90;;;;;;4929567;29;20028;-85
2021/11/22 10:33:50;;;;;;;2.65;1.40;;;5.50;99.90;;;;;;4929023;29;20033;-84
2021/11/22 10:36:19;;;;;;;2.15;1.20;;;5.50;99.90;;;;;;4933557;28;20040;-86
2021/11/22 10:38:49;;;;;;;1.45;1.17;;;5.50;99.90;;;;;;4927953;28;20127;-84
2021/11/22 10:41:32;;;;;;;1.52;1.15;;;5.50;99.90;;;;;;4946951;29;20024;-83
2021/11/22 10:44:08;;;;;;;1.55;1.08;;;5.40;99.90;;;;;;4929604;29;20036;-87
2021/11/22 10:46:47;;;;;;;2.15;1.20;;;5.40;99.90;;;;;;4937356;28;20103;-84
2021/11/22 10:49:27;;;;;;;2.25;1.20;;;5.40;99.90;;;;;;4939945;29;21771;-86
2021/11/22 10:52:29;;;;;;;2.28;1.65;;;5.40;99.90;;;;;;4927619;29;20597;-84
2021/11/22 10:54:55;;;;;;;2.10;1.40;;;5.50;99.90;;;;;;4915911;29;20031;-84
2021/11/22 10:57:22;;;;;;;2.33;1.75;;;5.50;99.90;;;;;;4946254;28;20038;-84
2021/11/22 10:59:48;;;;;;;2.58;1.60;;;5.50;99.90;;;;;;4913842;29;20035;-83
2021/11/22 11:02:14;;;;;;;2.13;1.30;;;5.50;99.90;;;;;;4916084;29;20044;-85
2021/11/22 11:04:44;;;;;;;3.67;1.45;;;5.50;99.90;;;;;;4931802;29;20111;-86
2021/11/22 11:07:11;;;;;;;2.00;1.77;;;5.50;99.90;;;;;;4945427;28;20127;-85
2021/11/22 11:09:38;;;;;;;1.98;1.60;;;5.60;99.90;;;;;;4940442;28;20530;-88
2021/11/22 11:12:06;;;;;;;2.25;1.60;;;5.60;99.90;;;;;;4943799;28;20092;-86
2021/11/22 11:14:35;;;;;;;2.00;1.50;;;5.60;99.90;;;;;;4916514;29;20043;-86
2021/11/22 11:17:18;;;;;;;2.83;1.42;;;5.60;99.90;;;;;;4928853;29;20451;-86
2021/11/22 11:19:45;;;;;;;2.22;1.20;;;5.60;99.90;;;;;;4928971;28;20032;-84
2021/11/22 11:22:11;;;;;;;1.92;1.27;;;5.60;99.90;;;;;;4929842;29;20039;-83
2021/11/22 11:24:37;;;;;;;2.25;1.48;;;5.50;99.90;;;;;;4930723;28;20095;-83
2021/11/22 11:27:03;;;;;;;2.35;1.20;;;5.60;99.90;;;;;;4926557;29;20527;-84
2021/11/22 11:29:29;;;;;;;1.48;1.15;;;5.60;99.90;;;;;;4928069;29;20031;-82
2021/11/22 11:31:56;;;;;;;1.25;1.00;;;5.70;99.90;;;;;;4901535;29;20060;-83
2021/11/22 11:34:28;;;;;;;1.67;1.10;;;5.70;99.90;;;;;;4931667;28;20063;-82
2021/11/22 11:37:09;;;;;;;1.70;1.10;;;5.80;99.90;;;;;;4930560;29;20447;-83
2021/11/22 11:39:37;;;;;;;2.10;1.13;;;5.80;99.90;;;;;;4945786;28;20038;-82
2021/11/22 11:42:09;;;;;;;1.42;1.13;;;5.70;99.90;;;;;;4920818;28;20040;-84
2021/11/22 11:44:46;;;;;;;1.10;0.95;;;5.70;99.90;;;;;;4937514;29;20035;-83
2021/11/22 11:47:32;;;;;;;1.50;1.20;;;5.70;99.90;;;;;;4942781;28;20051;-84
2021/11/22 11:50:15;;;;;;;1.10;1.00;;;5.60;99.90;;;;;;4932093;29;20716;-84
2021/11/22 11:52:56;;;;;;;1.33;1.00;;;5.70;99.90;;;;;;4932419;29;20059;-83
2021/11/22 11:55:22;;;;;;;1.80;1.13;;;5.60;99.90;;;;;;4934758;29;20117;-82
2021/11/22 11:57:50;;;;;;;1.83;1.17;;;5.70;99.90;;;;;;4918259;29;20025;-82
2021/11/22 12:00:26;;;;;;;1.35;1.10;;;5.70;99.90;;;;;;4934216;29;20110;-84
2021/11/22 12:03:04;;;;;;;1.27;1.02;;;5.70;99.90;;;;;;4929583;29;20128;-86
2021/11/22 12:05:47;;;;;;;2.15;0.80;;;5.80;99.90;;;;;;4927349;28;20048;-84
2021/11/22 12:08:31;;;;;;;1.27;1.00;;;5.80;99.90;;;;;;4920609;29;20034;-84
2021/11/22 12:11:03;;;;;;;1.60;0.95;;;5.80;99.90;;;;;;4921687;29;20041;-83
2021/11/22 12:13:53;;;;;;;0.93;0.80;;;5.80;99.90;;;;;;4949838;29;20099;-85
2021/11/22 12:16:45;;;;;;;1.08;0.60;;;5.70;99.90;;;;;;4901664;29;20044;-86
2021/11/22 12:19:39;;;;;;;1.15;0.85;;;5.70;99.90;;;;;;4949552;28;20402;-85
2021/11/22 12:22:13;;;;;;;1.27;0.50;;;5.70;99.90;;;;;;4932818;28;20055;-85
2021/11/22 12:24:42;;;;;;;1.00;0.80;;;5.60;99.90;;;;;;4946636;29;20077;-83
2021/11/22 12:27:27;;;;;;;0.65;0.65;;;5.60;99.90;;;;;;4932807;28;20036;-84
2021/11/22 12:29:53;;;;;;;0.70;0.70;;;5.50;99.90;;;;;;4927659;29;20483;-84
2021/11/22 12:32:31;;;;;;;0.95;0.80;;;5.50;99.90;;;;;;4948159;28;20371;-84
2021/11/22 12:35:06;;;;;;;0.90;0.75;;;5.40;99.90;;;;;;4931002;29;20072;-84
2021/11/22 12:37:34;;;;;;;0.93;0.75;;;5.40;99.90;;;;;;4916114;28;20098;-83
2021/11/22 12:40:17;;;;;;;0.90;0.90;;;5.30;99.90;;;;;;4947749;28;20035;-83
2021/11/22 12:42:49;;;;;;;2.60;1.13;;;5.30;99.90;;;;;;4936575;28;20036;-83
2021/11/22 12:45:18;;;;;;;1.70;1.10;;;5.30;99.90;;;;;;4931212;28;20446;-83
2021/11/22 12:47:44;;;;;;;1.27;0.90;;;5.40;99.90;;;;;;4920579;29;20111;-83
2021/11/22 12:50:20;;;;;;;2.20;1.42;;;5.50;99.90;;;;;;4931612;29;20070;-82
2021/11/22 12:53:05;;;;;;;1.95;1.45;;;5.50;99.90;;;;;;4933787;29;20406;-83
2021/11/22 12:55:37;;;;;;;1.13;0.82;;;5.50;99.90;;;;;;4941872;28;20032;-84
2021/11/22 12:58:16;;;;;;;3.67;1.17;;;5.60;99.90;;;;;;4935919;29;20453;-83
2021/11/22 13:00:43;;;;;;;1.67;1.27;;;5.50;99.90;;;;;;4937728;29;20037;-84
2021/11/22 13:03:15;;;;;;;1.85;1.27;;;5.60;99.90;;;;;;4938506;28;20067;-84
2021/11/22 13:05:41;;;;;;;1.00;0.90;;;5.60;99.90;;;;;;4944503;28;20422;-84
2021/11/22 13:08:16;;;;;;;0.90;0.90;;;5.60;99.90;;;;;;4939096;29;20023;-84
2021/11/22 13:11:05;;;;;;;1.20;1.10;;;5.60;99.90;;;;;;4923022;29;20031;-85
2021/11/22 13:16:14;;;;;;;0.90;0.90;;;5.50;99.90;;;;;;4947055;28;20027;-85
2021/11/22 13:18:54;;;;;;;2.20;0.90;;;5.50;99.90;;;;;;4936238;28;20051;-85
2021/11/22 13:21:29;;;;;;;1.13;0.88;;;5.50;99.90;;;;;;4932273;29;20035;-85
2021/11/22 13:24:01;;;;;;;1.02;0.90;;;5.50;99.90;;;;;;4953069;28;20068;-85
2021/11/22 13:26:29;;;;;;;1.08;0.82;;;5.50;99.90;;;;;;4922052;29;20067;-84
2021/11/22 13:29:01;;;;;;;1.20;0.90;;;5.50;99.90;;;;;;4946368;28;20087;-85
2021/11/22 13:31:31;;;;;;;1.10;0.80;;;5.50;99.90;;;;;;4937176;28;20044;-85
2021/11/22 13:33:59;;;;;;;0.50;0.50;;;5.50;99.90;;;;;;4938927;29;20039;-85
2021/11/22 13:36:39;;;;;;;0.60;0.45;;;5.50;99.90;;;;;;4938948;28;20060;-85
2021/11/22 13:39:15;;;;;;;1.85;0.65;;;5.50;99.90;;;;;;4943608;29;20034;-84
2021/11/22 13:41:51;;;;;;;0.95;0.80;;;5.50;99.90;;;;;;4939014;29;20524;-84
2021/11/22 13:44:16;;;;;;;;;;;5.40;99.90;;;;;;4941395;29;20048;-84
2021/11/22 13:46:42;;;;;;;;;;;5.40;99.90;;;;;;4925314;29;19966;-83
2021/11/22 13:49:08;;;;;;;0.40;0.30;;;5.40;99.90;;;;;;4947770;29;20013;-85
2021/11/22 13:51:37;;;;;;;0.57;0.50;;;5.40;99.90;;;;;;4925628;29;20054;-85
2021/11/22 13:54:10;;;;;;;0.60;0.50;;;5.40;99.90;;;;;;4945477;28;20050;-83
2021/11/22 13:56:41;;;;;;;1.30;0.88;;;5.40;99.90;;;;;;4931212;28;20044;-86
2021/11/22 13:59:26;;;;;;;0.98;0.80;;;5.40;99.90;;;;;;4932067;28;20182;-84
2021/11/22 14:01:59;;;;;;;1.08;0.80;;;5.40;99.90;;;;;;4932932;29;20055;-84
2021/11/22 14:04:26;;;;;;;0.93;0.73;;;5.30;99.90;;;;;;4934696;29;20036;-84
2021/11/22 14:06:52;;;;;;;0.93;0.90;;;5.30;99.90;;;;;;4945886;28;20046;-84
2021/11/22 14:09:24;;;;;;;1.40;0.95;;;5.20;99.90;;;;;;4929754;29;20076;-85
2021/11/22 14:11:53;;;;;;;0.70;0.70;;;5.10;99.90;;;;;;4930405;29;20127;-83
2021/11/22 14:14:22;;;;;;;0.95;0.85;;;5.00;99.90;;;;;;4942017;29;20033;-84
2021/11/22 14:16:50;;;;;;;0.82;0.80;;;4.90;99.90;;;;;;4933818;29;20418;-85
2021/11/22 14:19:17;;;;;;;0.80;0.80;;;4.90;99.90;;;;;;4932855;29;20040;-84
2021/11/22 14:21:43;;;;;;;1.40;0.88;;;4.80;99.90;;;;;;4919259;29;20044;-84
2021/11/22 14:24:11;;;;;;;1.00;0.90;;;4.80;99.90;;;;;;4942131;28;20039;-84
2021/11/22 14:26:39;;;;;;;1.05;0.82;;;4.70;99.90;;;;;;4950110;29;20046;-83
2021/11/22 14:29:28;;;;;;;1.60;1.10;;;4.70;99.90;;;;;;4931624;28;20035;-84